sensor_id;sensor_type;location;lat;lon;timestamp;pressure;altitude;pressure_sealevel;temperature;humidity
48668;BME280;34453;52.198;5.004;2023-12-22T00:01:05;100608.66;;;7.16;100.00
48668;BME280;34453;52.198;5.004;2023-12-22T00:03:31;100612.47;;;7.12;100.00
48668;BME280;34453;52.198;5.004;2023-12-22T00:05:57;100610.81;;;7.11;100.00
48668;BME280;34453;52.198;5.004;2023-12-22T00:08:22;100631.88;;;7.08;100.00
48668;BME280;34453;52.198;5.004;2023-12-22T00:10:49;100616.75;;;7.01;100.00
48668;BME280;34453;52.198;5.004;2023-12-22T00:13:15;100612.53;;;6.89;100.00
48668;BME280;34453;52.198;5.004;2023-12-22T00:15:41;100638.09;;;6.73;100.00
48668;BME280;34453;52.198;5.004;2023-12-22T00:18:08;100614.66;;;6.40;100.00
48668;BME280;34453;52.198;5.004;2023-12-22T00:20:33;100617.84;;;6.21;100.00
48668;BME280;34453;52.198;5.004;2023-12-22T00:22:59;100611.94;;;6.19;100.00
48668;BME280;34453;52.198;5.004;2023-12-22T00:25:25;100628.94;;;6.23;100.00
48668;BME280;34453;52.198;5.004;2023-12-22T00:27:51;100612.28;;;6.15;100.00
48668;BME280;34453;52.198;5.004;2023-12-22T00:30:16;100618.78;;;6.09;100.00
48668;BME280;34453;52.198;5.004;2023-12-22T00:32:42;100627.50;;;6.08;100.00
48668;BME280;34453;52.198;5.004;2023-12-22T00:35:08;100623.75;;;6.01;100.00
48668;BME280;34453;52.198;5.004;2023-12-22T00:37:33;100640.00;;;5.92;100.00
48668;BME280;34453;52.198;5.004;2023-12-22T00:39:59;100648.03;;;6.00;100.00
48668;BME280;34453;52.198;5.004;2023-12-22T00:42:25;100643.81;;;5.99;100.00
48668;BME280;34453;52.198;5.004;2023-12-22T00:44:51;100644.03;;;5.96;100.00
48668;BME280;34453;52.198;5.004;2023-12-22T00:47:16;100646.50;;;5.97;100.00
48668;BME280;34453;52.198;5.004;2023-12-22T00:49:42;100648.88;;;6.00;100.00
48668;BME280;34453;52.198;5.004;2023-12-22T00:52:08;100689.84;;;6.08;100.00
48668;BME280;34453;52.198;5.004;2023-12-22T00:54:33;100691.28;;;6.12;100.00
48668;BME280;34453;52.198;5.004;2023-12-22T00:56:59;100701.91;;;6.09;100.00
48668;BME280;34453;52.198;5.004;2023-12-22T00:59:25;100727.88;;;6.09;100.00
48668;BME280;34453;52.198;5.004;2023-12-22T01:01:51;100727.03;;;6.09;100.00
48668;BME280;34453;52.198;5.004;2023-12-22T01:04:16;100726.59;;;6.15;100.00
48668;BME280;34453;52.198;5.004;2023-12-22T01:06:42;100723.88;;;6.16;100.00
48668;BME280;34453;52.198;5.004;2023-12-22T01:09:07;100727.53;;;6.14;100.00
48668;BME280;34453;52.198;5.004;2023-12-22T01:11:33;100745.25;;;6.20;100.00
48668;BME280;34453;52.198;5.004;2023-12-22T01:13:58;100731.31;;;6.21;100.00
48668;BME280;34453;52.198;5.004;2023-12-22T01:16:24;100739.13;;;6.21;100.00
48668;BME280;34453;52.198;5.004;2023-12-22T01:18:50;100753.91;;;6.32;100.00
48668;BME280;34453;52.198;5.004;2023-12-22T01:21:16;100762.88;;;6.28;100.00
48668;BME280;34453;52.198;5.004;2023-12-22T01:23:42;100753.91;;;6.32;100.00
48668;BME280;34453;52.198;5.004;2023-12-22T01:26:07;100749.53;;;6.32;100.00
48668;BME280;34453;52.198;5.004;2023-12-22T01:28:34;100741.72;;;6.32;100.00
48668;BME280;34453;52.198;5.004;2023-12-22T01:31:00;100754.13;;;6.29;100.00
48668;BME280;34453;52.198;5.004;2023-12-22T01:33:25;100754.97;;;6.29;100.00
48668;BME280;34453;52.198;5.004;2023-12-22T01:35:51;100746.81;;;6.22;100.00
48668;BME280;34453;52.198;5.004;2023-12-22T01:38:17;100757.66;;;6.28;100.00
48668;BME280;34453;52.198;5.004;2023-12-22T01:40:43;100749.88;;;6.28;100.00
48668;BME280;34453;52.198;5.004;2023-12-22T01:43:08;100753.19;;;6.30;100.00
48668;BME280;34453;52.198;5.004;2023-12-22T01:45:34;100752.03;;;6.34;100.00
48668;BME280;34453;52.198;5.004;2023-12-22T01:48:01;100743.38;;;6.33;100.00
48668;BME280;34453;52.198;5.004;2023-12-22T01:50:28;100741.72;;;6.32;100.00
48668;BME280;34453;52.198;5.004;2023-12-22T01:52:54;100743.50;;;6.32;100.00
48668;BME280;34453;52.198;5.004;2023-12-22T01:55:20;100747.84;;;6.31;100.00
48668;BME280;34453;52.198;5.004;2023-12-22T01:57:46;100755.66;;;6.31;100.00
48668;BME280;34453;52.198;5.004;2023-12-22T02:00:13;100766.19;;;6.30;100.00
48668;BME280;34453;52.198;5.004;2023-12-22T02:02:40;100762.63;;;6.31;100.00
48668;BME280;34453;52.198;5.004;2023-12-22T02:05:08;100760.38;;;6.37;100.00
48668;BME280;34453;52.198;5.004;2023-12-22T02:07:41;100757.09;;;6.47;100.00
48668;BME280;34453;52.198;5.004;2023-12-22T02:10:08;100752.50;;;6.61;100.00
48668;BME280;34453;52.198;5.004;2023-12-22T02:12:35;100735.28;;;6.72;100.00
48668;BME280;34453;52.198;5.004;2023-12-22T02:15:00;100724.25;;;6.79;100.00
48668;BME280;34453;52.198;5.004;2023-12-22T02:17:32;100712.94;;;6.80;100.00
48668;BME280;34453;52.198;5.004;2023-12-22T02:19:58;100712.56;;;6.85;100.00
48668;BME280;34453;52.198;5.004;2023-12-22T02:22:24;100676.28;;;6.83;100.00
48668;BME280;34453;52.198;5.004;2023-12-22T02:24:49;100658.41;;;6.90;100.00
48668;BME280;34453;52.198;5.004;2023-12-22T02:27:28;100648.78;;;7.02;100.00
48668;BME280;34453;52.198;5.004;2023-12-22T02:30:09;100636.25;;;7.07;100.00
48668;BME280;34453;52.198;5.004;2023-12-22T02:32:48;100614.59;;;7.06;100.00
48668;BME280;34453;52.198;5.004;2023-12-22T02:35:19;100607.50;;;7.09;100.00
48668;BME280;34453;52.198;5.004;2023-12-22T02:37:48;100599.59;;;7.10;100.00
48668;BME280;34453;52.198;5.004;2023-12-22T02:40:15;100599.59;;;7.10;100.00
48668;BME280;34453;52.198;5.004;2023-12-22T02:42:41;100582.63;;;7.16;100.00
48668;BME280;34453;52.198;5.004;2023-12-22T02:45:13;100577.44;;;7.16;100.00
48668;BME280;34453;52.198;5.004;2023-12-22T02:47:39;100583.72;;;7.13;100.00
48668;BME280;34453;52.198;5.004;2023-12-22T02:50:05;100585.94;;;7.18;100.00
48668;BME280;34453;52.198;5.004;2023-12-22T02:52:31;100594.72;;;7.17;100.00
48668;BME280;34453;52.198;5.004;2023-12-22T02:54:57;100589.75;;;7.14;100.00
48668;BME280;34453;52.198;5.004;2023-12-22T02:57:23;100584.50;;;7.25;100.00
48668;BME280;34453;52.198;5.004;2023-12-22T02:59:48;100590.16;;;7.30;100.00
48668;BME280;34453;52.198;5.004;2023-12-22T03:02:14;100566.66;;;7.41;100.00
48668;BME280;34453;52.198;5.004;2023-12-22T03:04:40;100558.84;;;7.41;100.00
48668;BME280;34453;52.198;5.004;2023-12-22T03:07:06;100554.63;;;7.40;100.00
48668;BME280;34453;52.198;5.004;2023-12-22T03:09:31;100560.81;;;7.28;100.00
48668;BME280;34453;52.198;5.004;2023-12-22T03:12:00;100555.34;;;7.31;100.00
48668;BME280;34453;52.198;5.004;2023-12-22T03:14:30;100548.94;;;7.35;100.00
48668;BME280;34453;52.198;5.004;2023-12-22T03:17:02;100554.84;;;7.37;100.00
48668;BME280;34453;52.198;5.004;2023-12-22T03:19:28;100547.44;;;7.33;100.00
48668;BME280;34453;52.198;5.004;2023-12-22T03:21:54;100543.44;;;7.29;100.00
48668;BME280;34453;52.198;5.004;2023-12-22T03:24:19;100553.34;;;7.35;100.00
48668;BME280;34453;52.198;5.004;2023-12-22T03:26:55;100560.66;;;7.41;100.00
48668;BME280;34453;52.198;5.004;2023-12-22T03:29:21;100584.56;;;7.56;100.00
48668;BME280;34453;52.198;5.004;2023-12-22T03:31:46;100585.72;;;7.63;100.00
48668;BME280;34453;52.198;5.004;2023-12-22T03:34:12;100582.78;;;7.77;100.00
48668;BME280;34453;52.198;5.004;2023-12-22T03:36:38;100598.50;;;7.76;100.00
48668;BME280;34453;52.198;5.004;2023-12-22T03:39:04;100590.34;;;7.80;100.00
48668;BME280;34453;52.198;5.004;2023-12-22T03:41:30;100585.28;;;7.88;100.00
48668;BME280;34453;52.198;5.004;2023-12-22T03:43:58;100595.47;;;7.92;100.00
48668;BME280;34453;52.198;5.004;2023-12-22T03:46:24;100585.44;;;7.87;100.00
48668;BME280;34453;52.198;5.004;2023-12-22T03:48:53;100596.28;;;7.92;100.00
48668;BME280;34453;52.198;5.004;2023-12-22T03:51:18;100596.28;;;7.92;100.00
48668;BME280;34453;52.198;5.004;2023-12-22T03:53:44;100574.34;;;7.95;100.00
48668;BME280;34453;52.198;5.004;2023-12-22T03:56:10;100573.66;;;7.93;100.00
48668;BME280;34453;52.198;5.004;2023-12-22T03:58:36;100566.81;;;7.92;100.00
48668;BME280;34453;52.198;5.004;2023-12-22T04:01:02;100566.66;;;7.93;100.00
48668;BME280;34453;52.198;5.004;2023-12-22T04:03:28;100567.47;;;7.94;100.00
48668;BME280;34453;52.198;5.004;2023-12-22T04:05:53;100541.59;;;7.92;100.00
48668;BME280;34453;52.198;5.004;2023-12-22T04:08:19;100543.38;;;7.92;100.00
48668;BME280;34453;52.198;5.004;2023-12-22T04:10:46;100539.53;;;7.96;100.00
48668;BME280;34453;52.198;5.004;2023-12-22T04:13:11;100537.16;;;7.83;100.00
48668;BME280;34453;52.198;5.004;2023-12-22T04:15:40;100554.03;;;7.88;100.00
48668;BME280;34453;52.198;5.004;2023-12-22T04:18:05;100546.22;;;7.88;100.00
48668;BME280;34453;52.198;5.004;2023-12-22T04:20:31;100549.09;;;7.85;100.00
48668;BME280;34453;52.198;5.004;2023-12-22T04:22:57;100543.38;;;7.92;100.00
48668;BME280;34453;52.198;5.004;2023-12-22T04:25:22;100553.78;;;7.92;100.00
48668;BME280;34453;52.198;5.004;2023-12-22T04:27:50;100544.72;;;7.86;100.00
48668;BME280;34453;52.198;5.004;2023-12-22T04:30:15;100545.00;;;7.93;100.00
48668;BME280;34453;52.198;5.004;2023-12-22T04:32:41;100550.50;;;7.89;100.00
48668;BME280;34453;52.198;5.004;2023-12-22T04:35:06;100553.09;;;7.89;100.00
48668;BME280;34453;52.198;5.004;2023-12-22T04:37:32;100554.31;;;7.85;100.00
48668;BME280;34453;52.198;5.004;2023-12-22T04:39:58;100564.88;;;7.94;100.00
48668;BME280;34453;52.198;5.004;2023-12-22T04:42:23;100563.13;;;7.94;100.00
48668;BME280;34453;52.198;5.004;2023-12-22T04:44:51;100577.66;;;7.97;100.00
48668;BME280;34453;52.198;5.004;2023-12-22T04:47:17;100587.81;;;8.00;100.00
48668;BME280;34453;52.198;5.004;2023-12-22T04:49:43;100578.78;;;8.04;100.00
48668;BME280;34453;52.198;5.004;2023-12-22T04:52:09;100596.09;;;8.05;100.00
48668;BME280;34453;52.198;5.004;2023-12-22T04:54:34;100601.53;;;8.02;100.00
48668;BME280;34453;52.198;5.004;2023-12-22T04:57:00;100609.22;;;8.03;100.00
48668;BME280;34453;52.198;5.004;2023-12-22T04:59:25;100607.56;;;8.02;100.00
48668;BME280;34453;52.198;5.004;2023-12-22T05:01:51;100610.75;;;8.06;100.00
48668;BME280;34453;52.198;5.004;2023-12-22T05:04:16;100609.53;;;8.10;100.00
48668;BME280;34453;52.198;5.004;2023-12-22T05:06:43;100604.97;;;8.02;100.00
48668;BME280;34453;52.198;5.004;2023-12-22T05:09:08;100612.53;;;8.05;100.00
48668;BME280;34453;52.198;5.004;2023-12-22T05:11:34;100616.94;;;8.05;100.00
48668;BME280;34453;52.198;5.004;2023-12-22T05:14:00;100599.50;;;8.05;100.00
48668;BME280;34453;52.198;5.004;2023-12-22T05:16:25;100596.63;;;8.08;100.00
48668;BME280;34453;52.198;5.004;2023-12-22T05:18:51;100597.44;;;8.09;100.00
48668;BME280;34453;52.198;5.004;2023-12-22T05:21:16;100592.81;;;8.13;100.00
48668;BME280;34453;52.198;5.004;2023-12-22T05:23:42;100584.88;;;8.14;100.00
48668;BME280;34453;52.198;5.004;2023-12-22T05:26:07;100578.03;;;8.23;100.00
48668;BME280;34453;52.198;5.004;2023-12-22T05:28:33;100588.88;;;8.18;100.00
48668;BME280;34453;52.198;5.004;2023-12-22T05:30:58;100581.88;;;8.19;100.00
48668;BME280;34453;52.198;5.004;2023-12-22T05:33:24;100592.13;;;8.20;100.00
48668;BME280;34453;52.198;5.004;2023-12-22T05:35:49;100588.41;;;8.13;100.00
48668;BME280;34453;52.198;5.004;2023-12-22T05:38:15;100578.97;;;8.12;100.00
48668;BME280;34453;52.198;5.004;2023-12-22T05:40:40;100577.47;;;8.19;100.00
48668;BME280;34453;52.198;5.004;2023-12-22T05:43:06;100591.19;;;8.21;100.00
48668;BME280;34453;52.198;5.004;2023-12-22T05:45:32;100586.00;;;8.31;100.00
48668;BME280;34453;52.198;5.004;2023-12-22T05:47:57;100600.41;;;8.25;100.00
48668;BME280;34453;52.198;5.004;2023-12-22T05:50:23;100599.19;;;8.29;100.00
48668;BME280;34453;52.198;5.004;2023-12-22T05:52:48;100598.34;;;8.29;100.00
48668;BME280;34453;52.198;5.004;2023-12-22T05:55:14;100594.91;;;8.28;100.00
48668;BME280;34453;52.198;5.004;2023-12-22T05:57:40;100595.88;;;8.27;100.00
48668;BME280;34453;52.198;5.004;2023-12-22T06:00:06;100613.69;;;8.22;100.00
48668;BME280;34453;52.198;5.004;2023-12-22T06:02:33;100609.88;;;8.26;100.00
48668;BME280;34453;52.198;5.004;2023-12-22T06:04:59;100610.13;;;8.23;100.00
48668;BME280;34453;52.198;5.004;2023-12-22T06:07:24;100601.91;;;8.28;100.00
48668;BME280;34453;52.198;5.004;2023-12-22T06:09:50;100613.16;;;8.28;100.00
48668;BME280;34453;52.198;5.004;2023-12-22T06:12:15;100610.44;;;8.30;100.00
48668;BME280;34453;52.198;5.004;2023-12-22T06:14:41;100609.03;;;8.26;100.00
48668;BME280;34453;52.198;5.004;2023-12-22T06:17:06;100612.06;;;8.31;100.00
48668;BME280;34453;52.198;5.004;2023-12-22T06:19:32;100622.38;;;8.33;100.00
48668;BME280;34453;52.198;5.004;2023-12-22T06:21:57;100613.47;;;8.35;100.00
48668;BME280;34453;52.198;5.004;2023-12-22T06:24:23;100624.47;;;8.39;100.00
48668;BME280;34453;52.198;5.004;2023-12-22T06:26:49;100622.78;;;8.38;100.00
48668;BME280;34453;52.198;5.004;2023-12-22T06:29:15;100625.41;;;8.38;100.00
48668;BME280;34453;52.198;5.004;2023-12-22T06:31:40;100624.72;;;8.36;100.00
48668;BME280;34453;52.198;5.004;2023-12-22T06:34:06;100620.06;;;8.39;100.00
48668;BME280;34453;52.198;5.004;2023-12-22T06:36:31;100610.47;;;8.40;100.00
48668;BME280;34453;52.198;5.004;2023-12-22T06:38:57;100607.84;;;8.40;100.00
48668;BME280;34453;52.198;5.004;2023-12-22T06:41:25;100614.47;;;8.44;100.00
48668;BME280;34453;52.198;5.004;2023-12-22T06:43:50;100623.97;;;8.45;100.00
48668;BME280;34453;52.198;5.004;2023-12-22T06:46:17;100639.63;;;8.45;100.00
48668;BME280;34453;52.198;5.004;2023-12-22T06:48:43;100635.34;;;8.44;100.00
48668;BME280;34453;52.198;5.004;2023-12-22T06:51:19;100637.44;;;8.50;100.00
48668;BME280;34453;52.198;5.004;2023-12-22T06:53:49;100624.56;;;8.58;100.00
48668;BME280;34453;52.198;5.004;2023-12-22T06:56:24;100639.22;;;8.59;100.00
48668;BME280;34453;52.198;5.004;2023-12-22T06:58:51;100625.50;;;8.57;100.00
48668;BME280;34453;52.198;5.004;2023-12-22T07:01:20;100622.78;;;8.59;100.00
48668;BME280;34453;52.198;5.004;2023-12-22T07:03:47;100626.88;;;8.61;100.00
48668;BME280;34453;52.198;5.004;2023-12-22T07:06:14;100646.09;;;8.60;100.00
48668;BME280;34453;52.198;5.004;2023-12-22T07:08:40;100618.78;;;8.64;100.00
48668;BME280;34453;52.198;5.004;2023-12-22T07:11:06;100607.25;;;8.57;100.00
48668;BME280;34453;52.198;5.004;2023-12-22T07:13:32;100615.75;;;8.59;100.00
48668;BME280;34453;52.198;5.004;2023-12-22T07:15:58;100620.56;;;8.54;100.00
48668;BME280;34453;52.198;5.004;2023-12-22T07:18:23;100624.00;;;8.55;100.00
48668;BME280;34453;52.198;5.004;2023-12-22T07:20:50;100628.53;;;8.62;100.00
48668;BME280;34453;52.198;5.004;2023-12-22T07:23:16;100631.13;;;8.62;100.00
48668;BME280;34453;52.198;5.004;2023-12-22T07:25:41;100626.19;;;8.49;100.00
48668;BME280;34453;52.198;5.004;2023-12-22T07:28:07;100625.28;;;8.39;100.00
48668;BME280;34453;52.198;5.004;2023-12-22T07:30:32;100635.41;;;8.33;100.00
48668;BME280;34453;52.198;5.004;2023-12-22T07:32:58;100626.25;;;8.38;100.00
48668;BME280;34453;52.198;5.004;2023-12-22T07:35:23;100635.63;;;8.41;100.00
48668;BME280;34453;52.198;5.004;2023-12-22T07:37:49;100641.53;;;8.43;100.00
48668;BME280;34453;52.198;5.004;2023-12-22T07:40:14;100637.66;;;8.47;100.00
48668;BME280;34453;52.198;5.004;2023-12-22T07:42:40;100636.72;;;8.48;100.00
48668;BME280;34453;52.198;5.004;2023-12-22T07:45:06;100643.59;;;8.49;100.00
48668;BME280;34453;52.198;5.004;2023-12-22T07:47:33;100643.19;;;8.54;100.00
48668;BME280;34453;52.198;5.004;2023-12-22T07:49:58;100655.97;;;8.57;100.00
48668;BME280;34453;52.198;5.004;2023-12-22T07:52:24;100651.16;;;8.52;100.00
48668;BME280;34453;52.198;5.004;2023-12-22T07:54:49;100652.38;;;8.48;100.00
48668;BME280;34453;52.198;5.004;2023-12-22T07:57:16;100658.69;;;8.45;100.00
48668;BME280;34453;52.198;5.004;2023-12-22T07:59:42;100674.19;;;8.47;100.00
48668;BME280;34453;52.198;5.004;2023-12-22T08:02:07;100681.06;;;8.48;100.00
48668;BME280;34453;52.198;5.004;2023-12-22T08:04:33;100681.81;;;8.39;100.00
48668;BME280;34453;52.198;5.004;2023-12-22T08:06:59;100697.84;;;8.13;100.00
48668;BME280;34453;52.198;5.004;2023-12-22T08:09:24;100690.94;;;8.02;100.00
48668;BME280;34453;52.198;5.004;2023-12-22T08:11:50;100680.47;;;7.93;100.00
48668;BME280;34453;52.198;5.004;2023-12-22T08:14:18;100688.53;;;7.89;100.00
48668;BME280;34453;52.198;5.004;2023-12-22T08:16:44;100692.59;;;8.03;100.00
48668;BME280;34453;52.198;5.004;2023-12-22T08:19:10;100673.97;;;8.08;100.00
48668;BME280;34453;52.198;5.004;2023-12-22T08:21:35;100691.16;;;8.20;100.00
48668;BME280;34453;52.198;5.004;2023-12-22T08:24:01;100690.94;;;8.23;100.00
48668;BME280;34453;52.198;5.004;2023-12-22T08:26:26;100683.13;;;8.23;100.00
48668;BME280;34453;52.198;5.004;2023-12-22T08:28:52;100687.81;;;8.29;100.00
48668;BME280;34453;52.198;5.004;2023-12-22T08:31:18;100689.44;;;8.30;100.00
48668;BME280;34453;52.198;5.004;2023-12-22T08:33:43;100678.50;;;8.37;100.00
48668;BME280;34453;52.198;5.004;2023-12-22T08:36:10;100692.13;;;8.40;100.00
48668;BME280;34453;52.198;5.004;2023-12-22T08:38:37;100691.47;;;8.48;100.00
48668;BME280;34453;52.198;5.004;2023-12-22T08:41:08;100714.44;;;8.54;100.00
48668;BME280;34453;52.198;5.004;2023-12-22T08:43:34;100717.47;;;8.59;100.00
48668;BME280;34453;52.198;5.004;2023-12-22T08:46:00;100741.25;;;8.66;100.00
48668;BME280;34453;52.198;5.004;2023-12-22T08:48:25;100731.00;;;8.74;100.00
48668;BME280;34453;52.198;5.004;2023-12-22T08:50:50;100725.88;;;8.73;100.00
48668;BME280;34453;52.198;5.004;2023-12-22T08:53:16;100742.50;;;8.71;100.00
48668;BME280;34453;52.198;5.004;2023-12-22T08:55:41;100758.81;;;8.74;100.00
48668;BME280;34453;52.198;5.004;2023-12-22T08:58:07;100737.63;;;8.57;100.00
48668;BME280;34453;52.198;5.004;2023-12-22T09:00:35;100747.34;;;8.45;100.00
48668;BME280;34453;52.198;5.004;2023-12-22T09:03:04;100746.63;;;8.43;100.00
48668;BME280;34453;52.198;5.004;2023-12-22T09:05:29;100734.13;;;8.47;100.00
48668;BME280;34453;52.198;5.004;2023-12-22T09:07:55;100736.81;;;8.57;100.00
48668;BME280;34453;52.198;5.004;2023-12-22T09:10:20;100729.41;;;8.62;100.00
48668;BME280;34453;52.198;5.004;2023-12-22T09:12:46;100740.16;;;8.68;100.00
48668;BME280;34453;52.198;5.004;2023-12-22T09:15:11;100734.41;;;8.75;100.00
48668;BME280;34453;52.198;5.004;2023-12-22T09:17:38;100750.38;;;8.81;100.00
48668;BME280;34453;52.198;5.004;2023-12-22T09:20:03;100749.84;;;8.87;100.00
48668;BME280;34453;52.198;5.004;2023-12-22T09:22:29;100757.13;;;8.93;100.00
48668;BME280;34453;52.198;5.004;2023-12-22T09:24:54;100755.34;;;8.94;100.00
48668;BME280;34453;52.198;5.004;2023-12-22T09:27:20;100761.81;;;9.00;100.00
48668;BME280;34453;52.198;5.004;2023-12-22T09:29:45;100754.56;;;9.03;100.00
48668;BME280;34453;52.198;5.004;2023-12-22T09:32:11;100745.75;;;9.04;100.00
48668;BME280;34453;52.198;5.004;2023-12-22T09:34:36;100756.78;;;9.08;100.00
48668;BME280;34453;52.198;5.004;2023-12-22T09:37:02;100754.03;;;9.09;100.00
48668;BME280;34453;52.198;5.004;2023-12-22T09:39:27;100753.47;;;9.16;100.00
48668;BME280;34453;52.198;5.004;2023-12-22T09:41:54;100757.63;;;9.18;100.00
48668;BME280;34453;52.198;5.004;2023-12-22T09:44:21;100754.63;;;9.23;100.00
48668;BME280;34453;52.198;5.004;2023-12-22T09:46:50;100766.69;;;9.24;100.00
48668;BME280;34453;52.198;5.004;2023-12-22T09:49:20;100743.59;;;9.29;100.00
48668;BME280;34453;52.198;5.004;2023-12-22T09:51:47;100748.84;;;9.29;100.00
48668;BME280;34453;52.198;5.004;2023-12-22T09:54:14;100743.34;;;9.32;100.00
48668;BME280;34453;52.198;5.004;2023-12-22T09:56:40;100747.34;;;9.36;100.00
48668;BME280;34453;52.198;5.004;2023-12-22T09:59:13;100727.97;;;9.39;100.00
48668;BME280;34453;52.198;5.004;2023-12-22T10:01:43;100738.13;;;9.42;100.00
48668;BME280;34453;52.198;5.004;2023-12-22T10:04:13;100737.84;;;9.45;100.00
48668;BME280;34453;52.198;5.004;2023-12-22T10:06:39;100734.16;;;9.47;100.00
48668;BME280;34453;52.198;5.004;2023-12-22T10:09:05;100729.63;;;9.49;100.00
48668;BME280;34453;52.198;5.004;2023-12-22T10:11:32;100727.03;;;9.49;100.00
48668;BME280;34453;52.198;5.004;2023-12-22T10:13:59;100718.50;;;9.47;100.00
48668;BME280;34453;52.198;5.004;2023-12-22T10:16:25;100731.28;;;9.50;100.00
48668;BME280;34453;52.198;5.004;2023-12-22T10:18:51;100727.69;;;9.51;100.00
48668;BME280;34453;52.198;5.004;2023-12-22T10:21:17;100732.91;;;9.51;100.00
48668;BME280;34453;52.198;5.004;2023-12-22T10:23:43;100723.16;;;9.53;100.00
48668;BME280;34453;52.198;5.004;2023-12-22T10:26:11;100720.13;;;9.58;100.00
48668;BME280;34453;52.198;5.004;2023-12-22T10:28:36;100725.50;;;9.57;100.00
48668;BME280;34453;52.198;5.004;2023-12-22T10:31:02;100715.06;;;9.57;100.00
48668;BME280;34453;52.198;5.004;2023-12-22T10:33:32;100731.00;;;9.53;100.00
48668;BME280;34453;52.198;5.004;2023-12-22T10:36:01;100723.59;;;9.59;100.00
48668;BME280;34453;52.198;5.004;2023-12-22T10:38:33;100729.22;;;9.54;100.00
48668;BME280;34453;52.198;5.004;2023-12-22T10:41:06;100724.69;;;9.56;100.00
48668;BME280;34453;52.198;5.004;2023-12-22T10:43:39;100735.28;;;9.54;100.00
48668;BME280;34453;52.198;5.004;2023-12-22T10:46:09;100736.50;;;9.60;100.00
48668;BME280;34453;52.198;5.004;2023-12-22T10:48:36;100733.75;;;9.62;100.00
48668;BME280;34453;52.198;5.004;2023-12-22T10:51:02;100722.06;;;9.66;100.00
48668;BME280;34453;52.198;5.004;2023-12-22T10:53:28;100723.00;;;9.65;100.00
48668;BME280;34453;52.198;5.004;2023-12-22T10:55:53;100714.09;;;9.67;100.00
48668;BME280;34453;52.198;5.004;2023-12-22T10:58:19;100708.19;;;9.65;100.00
48668;BME280;34453;52.198;5.004;2023-12-22T11:00:45;100703.09;;;9.64;100.00
48668;BME280;34453;52.198;5.004;2023-12-22T11:03:17;100705.72;;;9.64;100.00
48668;BME280;34453;52.198;5.004;2023-12-22T11:05:46;100707.91;;;9.59;100.00
48668;BME280;34453;52.198;5.004;2023-12-22T11:08:13;100687.03;;;9.59;100.00
48668;BME280;34453;52.198;5.004;2023-12-22T11:10:42;100689.34;;;9.62;100.00
48668;BME280;34453;52.198;5.004;2023-12-22T11:13:12;100684.69;;;9.65;100.00
48668;BME280;34453;52.198;5.004;2023-12-22T11:15:39;100683.28;;;9.71;100.00
48668;BME280;34453;52.198;5.004;2023-12-22T11:18:05;100675.88;;;9.76;100.00
48668;BME280;34453;52.198;5.004;2023-12-22T11:20:33;100682.03;;;9.75;100.00
48668;BME280;34453;52.198;5.004;2023-12-22T11:23:00;100682.03;;;9.75;100.00
48668;BME280;34453;52.198;5.004;2023-12-22T11:25:28;100672.16;;;9.79;100.00
48668;BME280;34453;52.198;5.004;2023-12-22T11:27:55;100662.53;;;9.79;100.00
48668;BME280;34453;52.198;5.004;2023-12-22T11:30:22;100661.53;;;9.80;100.00
48668;BME280;34453;52.198;5.004;2023-12-22T11:32:49;100650.69;;;9.75;100.00
48668;BME280;34453;52.198;5.004;2023-12-22T11:35:15;100645.59;;;9.73;100.00
48668;BME280;34453;52.198;5.004;2023-12-22T11:37:42;100643.25;;;9.80;100.00
48668;BME280;34453;52.198;5.004;2023-12-22T11:40:09;100638.88;;;9.81;100.00
48668;BME280;34453;52.198;5.004;2023-12-22T11:42:42;100641.06;;;9.85;100.00
48668;BME280;34453;52.198;5.004;2023-12-22T11:45:12;100640.38;;;9.83;100.00
48668;BME280;34453;52.198;5.004;2023-12-22T11:47:40;100629.75;;;9.85;100.00
48668;BME280;34453;52.198;5.004;2023-12-22T11:50:10;100626.75;;;9.89;100.00
48668;BME280;34453;52.198;5.004;2023-12-22T11:52:36;100629.22;;;9.91;100.00
48668;BME280;34453;52.198;5.004;2023-12-22T11:55:01;100625.47;;;9.93;100.00
48668;BME280;34453;52.198;5.004;2023-12-22T11:59:57;100634.84;;;9.96;100.00
48668;BME280;34453;52.198;5.004;2023-12-22T12:02:23;100619.56;;;9.91;100.00
48668;BME280;34453;52.198;5.004;2023-12-22T12:04:50;100617.06;;;10.00;100.00
48668;BME280;34453;52.198;5.004;2023-12-22T12:07:40;100615.09;;;10.11;100.00
48668;BME280;34453;52.198;5.004;2023-12-22T12:10:10;100607.13;;;10.13;100.00
48668;BME280;34453;52.198;5.004;2023-12-22T12:12:35;100609.03;;;10.21;100.00
48668;BME280;34453;52.198;5.004;2023-12-22T12:15:13;100603.63;;;10.22;100.00
48668;BME280;34453;52.198;5.004;2023-12-22T12:17:42;100595.56;;;10.15;100.00
48668;BME280;34453;52.198;5.004;2023-12-22T12:20:11;100614.97;;;10.13;100.00
48668;BME280;34453;52.198;5.004;2023-12-22T12:22:38;100605.50;;;10.12;100.00
48668;BME280;34453;52.198;5.004;2023-12-22T12:25:09;100617.59;;;10.13;100.00
48668;BME280;34453;52.198;5.004;2023-12-22T12:27:38;100607.13;;;10.13;100.00
48668;BME280;34453;52.198;5.004;2023-12-22T12:30:11;100620.19;;;10.13;100.00
48668;BME280;34453;52.198;5.004;2023-12-22T12:32:38;100600.53;;;10.09;100.00
48668;BME280;34453;52.198;5.004;2023-12-22T12:35:04;100579.50;;;10.10;100.00
48668;BME280;34453;52.198;5.004;2023-12-22T12:37:31;100595.41;;;10.17;100.00
48668;BME280;34453;52.198;5.004;2023-12-22T12:42:32;100592.56;;;10.10;100.00
48668;BME280;34453;52.198;5.004;2023-12-22T12:45:06;100599.28;;;10.13;100.00
48668;BME280;34453;52.198;5.004;2023-12-22T12:47:32;100604.50;;;10.13;100.00
48668;BME280;34453;52.198;5.004;2023-12-22T12:49:59;100584.84;;;10.09;100.00
48668;BME280;34453;52.198;5.004;2023-12-22T12:52:26;100603.81;;;10.11;100.00